Observation data for Dimmitt on 02/11/2018      Previous  Date  Next       Current Mesonet Observations  Soil Data  Daily Summary Page  Observations in Plain Language
KDMS 110600Z 01012KT M10/M14 A2999 RMK A01 T11031139  RH  074%=      5-min Rain = 0
KDMS 110605Z 01011KT M10/M14 A30 RMK A01 T11031139  RH  074%=      5-min Rain = 0
KDMS 110610Z 01011KT M10/M14 A30 RMK A01 T11041140  RH  074%=      5-min Rain = 0
KDMS 110615Z 01011KT M10/M14 A30 RMK A01 T11041140  RH  074%=      5-min Rain = 0
KDMS 110620Z 01011KT M10/M14 A30 RMK A01 T11041140  RH  074%=      5-min Rain = 0
KDMS 110625Z 01011KT M10/M14 A30 RMK A01 T11031140  RH  074%=      5-min Rain = 0
KDMS 110630Z 01012KT M10/M14 A3001 RMK A01 T11031140  RH  074%=      5-min Rain = 0
KDMS 110635Z 01010KT M10/M14 A3001 RMK A01 T11041141  RH  074%=      5-min Rain = 0
KDMS 110640Z 01010KT M11/M14 A30 RMK A01 T11051141  RH  074%=      5-min Rain = 0
KDMS 110645Z 00011KT M11/M14 A3001 RMK A01 T11051140  RH  075%=      5-min Rain = 0
KDMS 110650Z 00010KT M11/M14 A3001 RMK A01 T11051141  RH  074%=      5-min Rain = 0
KDMS 110655Z 00010KT M11/M14 A3001 RMK A01 T11051141  RH  074%=      5-min Rain = 0
KDMS 110700Z 00011KT M11/M14 A3001 RMK A01 T11051141  RH  074%=      5-min Rain = 0
KDMS 110705Z 01012KT M11/M14 A3001 RMK A01 T11051141  RH  074%=      5-min Rain = 0
KDMS 110710Z 01012KT M11/M14 A3001 RMK A01 T11051141  RH  074%=      5-min Rain = 0
KDMS 110715Z 01011KT M11/M14 A3001 RMK A01 T11051141  RH  074%=      5-min Rain = 0
KDMS 110720Z 00011KT M11/M14 A3001 RMK A01 T11061141  RH  075%=      5-min Rain = 0
KDMS 110725Z 00011KT M11/M14 A3001 RMK A01 T11051141  RH  075%=      5-min Rain = 0
KDMS 110730Z 36012KT M11/M14 A3002 RMK A01 T11051141  RH  074%=      5-min Rain = 0
KDMS 110735Z 36012KT M11/M14 A3002 RMK A01 T11061141  RH  074%=      5-min Rain = 0
KDMS 110740Z 36011KT M11/M14 A3002 RMK A01 T11061142  RH  075%=      5-min Rain = 0
KDMS 110745Z 36012KT M11/M14 A3002 RMK A01 T11071142  RH  075%=      5-min Rain = 0
KDMS 110750Z 35011KT M11/M14 A3002 RMK A01 T11071142  RH  075%=      5-min Rain = 0
KDMS 110755Z 35011KT M11/M14 A3002 RMK A01 T11071142  RH  075%=      5-min Rain = 0
KDMS 110800Z 35011KT M11/M14 A3002 RMK A01 T11071141  RH  075%=      5-min Rain = 0
KDMS 110805Z 35010KT M11/M14 A3002 RMK A01 T11061141  RH  075%=      5-min Rain = 0
KDMS 110810Z 35010KT M11/M14 A3002 RMK A01 T11061141  RH  075%=      5-min Rain = 0
KDMS 110815Z 35010KT M11/M14 A3002 RMK A01 T11051141  RH  074%=      5-min Rain = 0
KDMS 110820Z 35011KT M11/M14 A3002 RMK A01 T11051141  RH  074%=      5-min Rain = 0
KDMS 110825Z 35011KT M11/M14 A3002 RMK A01 T11051141  RH  074%=      5-min Rain = 0
KDMS 110830Z 35012KT M10/M14 A3002 RMK A01 T11041140  RH  074%=      5-min Rain = 0
KDMS 110835Z 35012KT M10/M14 A3002 RMK A01 T11021140  RH  074%=      5-min Rain = 0
KDMS 110840Z 35011KT M10/M14 A3002 RMK A01 T11021140  RH  073%=      5-min Rain = 0
KDMS 110845Z 35011KT M10/M14 A3002 RMK A01 T11011140  RH  073%=      5-min Rain = 0
KDMS 110850Z 35011KT M10/M14 A3002 RMK A01 T11011140  RH  073%=      5-min Rain = 0
KDMS 110855Z 35010KT M10/M14 A3002 RMK A01 T11011140  RH  072%=      5-min Rain = 0
KDMS 110900Z 35011KT M10/M14 A3002 RMK A01 T11001140  RH  072%=      5-min Rain = 0
KDMS 110905Z 36011KT M10/M14 A3002 RMK A01 T11001140  RH  072%=      5-min Rain = 0
KDMS 110910Z 36011KT M10/M14 A3002 RMK A01 T10991140  RH  071%=      5-min Rain = 0
KDMS 110915Z 00012KT M10/M14 A3002 RMK A01 T10981140  RH  071%=      5-min Rain = 0
KDMS 110920Z 36011KT M10/M14 A3002 RMK A01 T10971140  RH  071%=      5-min Rain = 0
KDMS 110925Z 36013KT M10/M14 A3002 RMK A01 T10971140  RH  070%=      5-min Rain = 0
KDMS 110930Z 35014KT M10/M14 A3002 RMK A01 T10961140  RH  070%=      5-min Rain = 0
KDMS 110935Z 36014KT M10/M14 A3003 RMK A01 T10961140  RH  070%=      5-min Rain = 0
KDMS 110940Z 36013KT M10/M14 A3002 RMK A01 T10961140  RH  070%=      5-min Rain = 0
KDMS 110945Z 36013KT M10/M14 A3002 RMK A01 T10961140  RH  070%=      5-min Rain = 0
KDMS 110950Z 36013KT M10/M14 A3003 RMK A01 T10961140  RH  070%=      5-min Rain = 0
KDMS 110955Z 35012KT M10/M14 A3003 RMK A01 T10951140  RH  069%=      5-min Rain = 0
KDMS 111000Z 35013KT M10/M14 A3004 RMK A01 T10951140  RH  069%=      5-min Rain = 0
KDMS 111005Z 35014KT M10/M14 A3003 RMK A01 T10951140  RH  069%=      5-min Rain = 0
KDMS 111010Z 35014KT M10/M14 A3003 RMK A01 T10951140  RH  069%=      5-min Rain = 0
KDMS 111015Z 35014KT M10/M14 A3003 RMK A01 T10961140  RH  069%=      5-min Rain = 0
KDMS 111020Z 36014KT M10/M14 A3003 RMK A01 T10961140  RH  069%=      5-min Rain = 0
KDMS 111025Z 35013KT M10/M14 A3004 RMK A01 T10951140  RH  069%=      5-min Rain = 0
KDMS 111030Z 35014KT M10/M14 A3004 RMK A01 T10951140  RH  069%=      5-min Rain = 0
KDMS 111035Z 35014KT M09/M14 A3004 RMK A01 T10941140  RH  069%=      5-min Rain = 0
KDMS 111040Z 35013KT M09/M14 A3004 RMK A01 T10941140  RH  069%=      5-min Rain = 0
KDMS 111045Z 36012KT M09/M14 A3004 RMK A01 T10941140  RH  069%=      5-min Rain = 0
KDMS 111050Z 00010KT M09/M14 A3004 RMK A01 T10941140  RH  069%=      5-min Rain = 0
KDMS 111055Z 36012KT M09/M14 A3004 RMK A01 T10941140  RH  069%=      5-min Rain = 0
KDMS 111100Z 35013KT M09/M14 A3004 RMK A01 T10941139  RH  069%=      5-min Rain = 0
KDMS 111105Z 35012KT M09/M14 A3005 RMK A01 T10931138  RH  069%=      5-min Rain = 0
KDMS 111110Z 35011KT M09/M14 A3005 RMK A01 T10921137  RH  069%=      5-min Rain = 0
KDMS 111115Z 35013KT M09/M14 A3005 RMK A01 T10931138  RH  069%=      5-min Rain = 0
KDMS 111120Z 35012KT M09/M14 A3005 RMK A01 T10931138  RH  069%=      5-min Rain = 0
KDMS 111125Z 35011KT M09/M14 A3006 RMK A01 T10941138  RH  069%=      5-min Rain = 0
KDMS 111130Z 35012KT M09/M14 A3006 RMK A01 T10941139  RH  070%=      5-min Rain = 0
KDMS 111135Z 35012KT M10/M14 A3006 RMK A01 T10951139  RH  070%=      5-min Rain = 0
KDMS 111140Z 35010KT M10/M14 A3007 RMK A01 T10951138  RH  070%=      5-min Rain = 0
KDMS 111145Z 34010KT M10/M14 A3007 RMK A01 T10951138  RH  070%=      5-min Rain = 0
KDMS 111150Z 34009KT M10/M14 A3007 RMK A01 T10961138  RH  071%=      5-min Rain = 0
KDMS 111155Z 34008KT M10/M14 A3007 RMK A01 T10961139  RH  071%=      5-min Rain = 0
KDMS 111200Z 34007KT M10/M14 A3007 RMK A01 T10961139  RH  071%=      5-min Rain = 0
KDMS 111205Z 34007KT M10/M14 A3008 RMK A01 T10961139  RH  071%=      5-min Rain = 0
KDMS 111210Z 34008KT M10/M14 A3008 RMK A01 T10961139  RH  070%=      5-min Rain = 0
KDMS 111215Z 34007KT M10/M14 A3008 RMK A01 T10961139  RH  070%=      5-min Rain = 0
KDMS 111220Z 34008KT M10/M14 A3008 RMK A01 T10961139  RH  070%=      5-min Rain = 0
KDMS 111225Z 33008KT M10/M14 A3008 RMK A01 T10961139  RH  070%=      5-min Rain = 0
KDMS 111230Z 33008KT M10/M14 A3009 RMK A01 T10961139  RH  070%=      5-min Rain = 0
KDMS 111235Z 33008KT M10/M14 A3009 RMK A01 T10951139  RH  070%=      5-min Rain = 0
KDMS 111240Z 33007KT M10/M14 A3009 RMK A01 T10951138  RH  070%=      5-min Rain = 0
KDMS 111245Z 33007KT M09/M14 A301 RMK A01 T10941138  RH  070%=      5-min Rain = 0
KDMS 111250Z 33008KT M09/M14 A301 RMK A01 T10931137  RH  070%=      5-min Rain = 0
KDMS 111255Z 34009KT M09/M14 A301 RMK A01 T10921136  RH  070%=      5-min Rain = 0
KDMS 111300Z 34010KT M09/M14 A301 RMK A01 T10901136  RH  069%=      5-min Rain = 0
KDMS 111305Z 33010KT M09/M14 A301 RMK A01 T10891135  RH  069%=      5-min Rain = 0
KDMS 111310Z 33011KT M09/M13 A301 RMK A01 T10881134  RH  069%=      5-min Rain = 0
KDMS 111315Z 33011KT M09/M13 A301 RMK A01 T10871134  RH  068%=      5-min Rain = 0
KDMS 111320Z 33011KT M09/M14 A301 RMK A01 T10871135  RH  068%=      5-min Rain = 0
KDMS 111325Z 33011KT M09/M14 A301 RMK A01 T10881135  RH  068%=      5-min Rain = 0
KDMS 111330Z 33011KT M09/M14 A301 RMK A01 T10881135  RH  068%=      5-min Rain = 0
KDMS 111335Z 33011KT M09/M13 A301 RMK A01 T10881134  RH  068%=      5-min Rain = 0
KDMS 111340Z 33009KT M09/M13 A3011 RMK A01 T10871134  RH  068%=      5-min Rain = 0
KDMS 111345Z 33008KT M09/M13 A3011 RMK A01 T10871134  RH  068%=      5-min Rain = 0
KDMS 111350Z 33008KT M09/M13 A3011 RMK A01 T10871134  RH  068%=      5-min Rain = 0
KDMS 111355Z 33008KT M09/M13 A3012 RMK A01 T10861133  RH  068%=      5-min Rain = 0
KDMS 111400Z 32007KT M09/M13 A3012 RMK A01 T10851132  RH  068%=      5-min Rain = 0
KDMS 111405Z 32008KT M08/M13 A3013 RMK A01 T10841132  RH  068%=      5-min Rain = 0
KDMS 111410Z 32008KT M08/M13 A3013 RMK A01 T10841131  RH  068%=      5-min Rain = 0
KDMS 111415Z 32009KT M08/M13 A3013 RMK A01 T10821129  RH  068%=      5-min Rain = 0
KDMS 111420Z 32009KT M08/M13 A3014 RMK A01 T10801127  RH  068%=      5-min Rain = 0
KDMS 111425Z 32010KT M08/M13 A3014 RMK A01 T10791126  RH  068%=      5-min Rain = 0
KDMS 111430Z 33010KT M08/M12 A3014 RMK A01 T10781124  RH  069%=      5-min Rain = 0
KDMS 111435Z 32012KT M08/M12 A3014 RMK A01 T10771122  RH  069%=      5-min Rain = 0
KDMS 111440Z 33011KT M08/M12 A3014 RMK A01 T10761121  RH  069%=      5-min Rain = 0
KDMS 111445Z 32010KT M07/M12 A3014 RMK A01 T10741120  RH  069%=      5-min Rain = 0
KDMS 111450Z 32010KT M07/M12 A3015 RMK A01 T10721118  RH  070%=      5-min Rain = 0
KDMS 111455Z 32010KT M07/M12 A3015 RMK A01 T10701115  RH  069%=      5-min Rain = 0
KDMS 111500Z 32009KT M07/M11 A3015 RMK A01 T10671114  RH  069%=      5-min Rain = 0
KDMS 111505Z 32010KT M07/M11 A3015 RMK A01 T10651112  RH  069%=      5-min Rain = 0
KDMS 111510Z 32010KT M06/M11 A3015 RMK A01 T10621110  RH  069%=      5-min Rain = 0
KDMS 111515Z 32011KT M06/M11 A3016 RMK A01 T10611108  RH  069%=      5-min Rain = 0
KDMS 111520Z 32011KT M06/M11 A3016 RMK A01 T10591107  RH  068%=      5-min Rain = 0
KDMS 111525Z 32011KT M06/M11 A3016 RMK A01 T10571106  RH  068%=      5-min Rain = 0
KDMS 111530Z 32011KT M05/M10 A3016 RMK A01 T10541104  RH  067%=      5-min Rain = 0
KDMS 111535Z 32011KT M05/M10 A3016 RMK A01 T10511103  RH  067%=      5-min Rain = 0
KDMS 111540Z 33010KT M05/M10 A3016 RMK A01 T10471101  RH  065%=      5-min Rain = 0
KDMS 111545Z 32012KT M04/M10 A3016 RMK A01 T10431100  RH  064%=      5-min Rain = 0
KDMS 111550Z 33011KT M04/M10 A3016 RMK A01 T10411101  RH  063%=      5-min Rain = 0
KDMS 111555Z 33012KT M04/M10 A3017 RMK A01 T10411101  RH  063%=      5-min Rain = 0
KDMS 111600Z 33011G16KT M04/M10 A3017 RMK A01 T10411100  RH  063%=      5-min Rain = 0
KDMS 111605Z 33011KT M04/M10 A3017 RMK A01 T10381100  RH  062%=      5-min Rain = 0
KDMS 111610Z 34012KT M04/M10 A3017 RMK A01 T10361100  RH  061%=      5-min Rain = 0
KDMS 111615Z 33011G17KT M03/M10 A3017 RMK A01 T10281096  RH  059%=      5-min Rain = 0
KDMS 111620Z 34012KT M03/M10 A3017 RMK A01 T10271100  RH  057%=      5-min Rain = 0
KDMS 111625Z 33012KT M03/M10 A3017 RMK A01 T10281100  RH  058%=      5-min Rain = 0
KDMS 111630Z 34013G18KT M03/M10 A3018 RMK A01 T10291102  RH  057%=      5-min Rain = 0
KDMS 111635Z 34012G17KT M03/M10 A3018 RMK A01 T10271101  RH  056%=      5-min Rain = 0
KDMS 111640Z 34015G20KT M03/M10 A3018 RMK A01 T10261103  RH  056%=      5-min Rain = 0
KDMS 111645Z 34014G19KT M02/M10 A3018 RMK A01 T10231102  RH  055%=      5-min Rain = 0
KDMS 111650Z 35014KT M02/M10 A3018 RMK A01 T10161102  RH  052%=      5-min Rain = 0
KDMS 111655Z 35015KT M02/M10 A3018 RMK A01 T10151103  RH  051%=      5-min Rain = 0
KDMS 111700Z 35013KT M01/M10 A3017 RMK A01 T10131102  RH  051%=      5-min Rain = 0
KDMS 111705Z 34013KT M01/M10 A3017 RMK A01 T10101102  RH  049%=      5-min Rain = 0
KDMS 111710Z 34013G18KT M01/M11 A3017 RMK A01 T10111107  RH  048%=      5-min Rain = 0
KDMS 111715Z 34013G18KT M01/M11 A3018 RMK A01 T10101105  RH  048%=      5-min Rain = 0
KDMS 111720Z 35014KT M01/M11 A3017 RMK A01 T10061107  RH  046%=      5-min Rain = 0
KDMS 111725Z 34013G19KT M00/M11 A3017 RMK A01 T10041107  RH  046%=      5-min Rain = 0
KDMS 111730Z 35014G19KT M00/M11 A3017 RMK A01 T10021107  RH  045%=      5-min Rain = 0
KDMS 111735Z 35013KT 00/M11 A3017 RMK A01 T00021107  RH  044%=      5-min Rain = 0
KDMS 111740Z 35013KT 01/M11 A3017 RMK A01 T00061110  RH  041%=      5-min Rain = 0
KDMS 111745Z 36014KT 01/M11 A3017 RMK A01 T00071111  RH  041%=      5-min Rain = 0
KDMS 111750Z 35013KT 01/M11 A3017 RMK A01 T00071111  RH  041%=      5-min Rain = 0
KDMS 111755Z 00012G17KT 01/M11 A3017 RMK A01 T00091111  RH  040%=      5-min Rain = 0
KDMS 111800Z 36012G18KT 01/M12 A3017 RMK A01 T00121115  RH  038%=      5-min Rain = 0
KDMS 111805Z 00013KT 01/M12 A3016 RMK A01 T00131116  RH  038%=      5-min Rain = 0
KDMS 111810Z 36011KT 01/M12 A3016 RMK A01 T00131117  RH  037%=      5-min Rain = 0
KDMS 111815Z 01012G17KT 02/M12 A3016 RMK A01 T00181120  RH  035%=      5-min Rain = 0
KDMS 111820Z 01011KT 02/M12 A3016 RMK A01 T00181118  RH  035%=      5-min Rain = 0
KDMS 111825Z 35012KT 02/M12 A3016 RMK A01 T00211123  RH  033%=      5-min Rain = 0
KDMS 111830Z 36011KT 02/M12 A3016 RMK A01 T00211122  RH  034%=      5-min Rain = 0
KDMS 111835Z 01009KT 03/M12 A3016 RMK A01 T00251119  RH  033%=      5-min Rain = 0
KDMS 111840Z 01009G14KT 03/M12 A3015 RMK A01 T00271122  RH  032%=      5-min Rain = 0
KDMS 111845Z 36009KT 03/M12 A3015 RMK A01 T00291121  RH  032%=      5-min Rain = 0
KDMS 111850Z 35010KT 03/M12 A3015 RMK A01 T00301123  RH  031%=      5-min Rain = 0
KDMS 111855Z 01009KT 03/M12 A3014 RMK A01 T00341122  RH  031%=      5-min Rain = 0
KDMS 111900Z 01008KT 04/M12 A3014 RMK A01 T00361124  RH  030%=      5-min Rain = 0
KDMS 111905Z 00008G13KT 04/M13 A3014 RMK A01 T00351130  RH  029%=      5-min Rain = 0
KDMS 111910Z 02009KT 04/M13 A3013 RMK A01 T00351128  RH  029%=      5-min Rain = 0
KDMS 111915Z 03005KT 04/M13 A3013 RMK A01 T00351127  RH  029%=      5-min Rain = 0
KDMS 111920Z 01006KT 04/M13 A3013 RMK A01 T00381126  RH  029%=      5-min Rain = 0
KDMS 111925Z 01005G11KT 04/M13 A3012 RMK A01 T00361131  RH  028%=      5-min Rain = 0
KDMS 111930Z 00008G14KT 04/M13 A3012 RMK A01 T00431130  RH  027%=      5-min Rain = 0
KDMS 111935Z 01005G11KT 04/M14 A3012 RMK A01 T00401137  RH  026%=      5-min Rain = 0
KDMS 111940Z 02007KT 04/M14 A3011 RMK A01 T00441140  RH  025%=      5-min Rain = 0
KDMS 111945Z 00007KT 05/M15 A3011 RMK A01 T00471148  RH  023%=      5-min Rain = 0
KDMS 111950Z 35005KT 05/M15 A3011 RMK A01 T00461145  RH  023%=      5-min Rain = 0
KDMS 111955Z 03006KT 05/M15 A301 RMK A01 T00481147  RH  023%=      5-min Rain = 0
KDMS 112000Z 06006KT 05/M15 A301 RMK A01 T00471149  RH  022%=      5-min Rain = 0
KDMS 112005Z 09005KT 05/M15 A301 RMK A01 T00501146  RH  022%=      5-min Rain = 0
KDMS 112010Z 02005KT 05/M15 A301 RMK A01 T00521148  RH  022%=      5-min Rain = 0
KDMS 112015Z 04003KT 05/M14 A301 RMK A01 T00531144  RH  022%=      5-min Rain = 0
KDMS 112020Z 01002KT 05/M15 A301 RMK A01 T00531146  RH  022%=      5-min Rain = 0
KDMS 112025Z 06003KT 05/M15 A301 RMK A01 T00531147  RH  022%=      5-min Rain = 0
KDMS 112030Z 03004G9KT 06/M15 A301 RMK A01 T00601146  RH  021%=      5-min Rain = 0
KDMS 112035Z 06005KT 06/M15 A301 RMK A01 T00571152  RH  020%=      5-min Rain = 0
KDMS 112040Z 10002KT 05/M15 A301 RMK A01 T00531151  RH  021%=      5-min Rain = 0
KDMS 112045Z 04004KT 06/M14 A301 RMK A01 T00591144  RH  021%=      5-min Rain = 0
KDMS 112050Z 05002KT 06/M15 A301 RMK A01 T00551149  RH  021%=      5-min Rain = 0
KDMS 112055Z 11001KT 06/M15 A301 RMK A01 T00601147  RH  021%=      5-min Rain = 0
KDMS 112100Z 09004KT 06/M15 A3009 RMK A01 T00611148  RH  021%=      5-min Rain = 0
KDMS 112105Z 35005G10KT 06/M15 A3009 RMK A01 T00641148  RH  020%=      5-min Rain = 0
KDMS 112110Z 35004KT 06/M15 A301 RMK A01 T00631152  RH  020%=      5-min Rain = 0
KDMS 112115Z 01004G9KT 06/M15 A301 RMK A01 T00631151  RH  020%=      5-min Rain = 0
KDMS 112120Z 36004KT 06/M15 A301 RMK A01 T00621154  RH  019%=      5-min Rain = 0
KDMS 112125Z 07003KT 06/M16 A301 RMK A01 T00641156  RH  019%=      5-min Rain = 0
KDMS 112130Z 18004G9KT 07/M15 A3009 RMK A01 T00671152  RH  019%=      5-min Rain = 0
KDMS 112135Z 07003KT 06/M16 A301 RMK A01 T00641156  RH  019%=      5-min Rain = 0
KDMS 112140Z 01003KT 07/M15 A301 RMK A01 T00651151  RH  019%=      5-min Rain = 0
KDMS 112145Z 29003KT 07/M15 A301 RMK A01 T00701150  RH  019%=      5-min Rain = 0
KDMS 112150Z 27003KT 06/M15 A301 RMK A01 T00641154  RH  019%=      5-min Rain = 0
KDMS 112155Z 34003KT 07/M16 A301 RMK A01 T00651156  RH  019%=      5-min Rain = 0
KDMS 112200Z 32003KT 06/M16 A301 RMK A01 T00641158  RH  019%=      5-min Rain = 0
KDMS 112205Z 32005KT 07/M16 A301 RMK A01 T00661158  RH  018%=      5-min Rain = 0
KDMS 112210Z 36004KT 07/M16 A301 RMK A01 T00651159  RH  018%=      5-min Rain = 0
KDMS 112215Z 35001KT 07/M16 A301 RMK A01 T00661160  RH  018%=      5-min Rain = 0
KDMS 112220Z 05003KT 07/M16 A301 RMK A01 T00671158  RH  018%=      5-min Rain = 0
KDMS 112225Z 04002KT 07/M16 A301 RMK A01 T00651159  RH  018%=      5-min Rain = 0
KDMS 112230Z 09002KT 07/M16 A301 RMK A01 T00691157  RH  018%=      5-min Rain = 0
KDMS 112235Z 05002KT 07/M16 A301 RMK A01 T00661158  RH  018%=      5-min Rain = 0
KDMS 112240Z 09001KT 07/M16 A3011 RMK A01 T00651157  RH  019%=      5-min Rain = 0
KDMS 112245Z 07001KT 07/M16 A3011 RMK A01 T00691156  RH  018%=      5-min Rain = 0
KDMS 112250Z 11001KT 07/M16 A3011 RMK A01 T00681158  RH  018%=      5-min Rain = 0
KDMS 112255Z 15001KT 07/M16 A3011 RMK A01 T00681159  RH  018%=      5-min Rain = 0
KDMS 112300Z 16002KT 07/M16 A3011 RMK A01 T00701159  RH  018%=      5-min Rain = 0
KDMS 112305Z 16002KT 07/M16 A3011 RMK A01 T00701158  RH  018%=      5-min Rain = 0
KDMS 112310Z 35002KT 07/M16 A3011 RMK A01 T00701158  RH  018%=      5-min Rain = 0
KDMS 112315Z 34002KT 07/M16 A3011 RMK A01 T00661156  RH  019%=      5-min Rain = 0
KDMS 112320Z 34002KT 07/M16 A3011 RMK A01 T00671155  RH  019%=      5-min Rain = 0
KDMS 112325Z 02002KT 07/M16 A3011 RMK A01 T00651155  RH  019%=      5-min Rain = 0
KDMS 112330Z 03001KT 06/M16 A3011 RMK A01 T00641156  RH  019%=      5-min Rain = 0
KDMS 112335Z 03000KT 07/M16 A3011 RMK A01 T00661157  RH  018%=      5-min Rain = 0
KDMS 112340Z 03000KT 07/M16 A3011 RMK A01 T00731156  RH  018%=      5-min Rain = 0
KDMS 112345Z 03002KT 07/M16 A3011 RMK A01 T00681155  RH  018%=      5-min Rain = 0
KDMS 112350Z 02002KT 06/M15 A3011 RMK A01 T00631149  RH  020%=      5-min Rain = 0
KDMS 112355Z 02001KT 06/M15 A3011 RMK A01 T00621151  RH  020%=      5-min Rain = 0
KDMS 120000Z 00000KT 06/M16 A3011 RMK A01 T00611157  RH  019%=      5-min Rain = 0
KDMS 120005Z 00000KT 06/M16 A3011 RMK A01 T00601157  RH  019%=      5-min Rain = 0
KDMS 120010Z 00000KT 06/M16 A3011 RMK A01 T00581157  RH  019%=      5-min Rain = 0
KDMS 120015Z 12001KT 06/M16 A3011 RMK A01 T00551158  RH  020%=      5-min Rain = 0
KDMS 120020Z 12001KT 05/M16 A3012 RMK A01 T00541158  RH  020%=      5-min Rain = 0
KDMS 120025Z 12001KT 05/M16 A3012 RMK A01 T00511158  RH  020%=      5-min Rain = 0
KDMS 120030Z 12002KT 05/M16 A3012 RMK A01 T00471159  RH  021%=      5-min Rain = 0
KDMS 120035Z 12003KT 05/M16 A3012 RMK A01 T00451161  RH  021%=      5-min Rain = 0
KDMS 120040Z 11003KT 04/M16 A3012 RMK A01 T00421161  RH  021%=      5-min Rain = 0
KDMS 120045Z 12005KT 03/M16 A3012 RMK A01 T00291164  RH  023%=      5-min Rain = 0
KDMS 120050Z 13005KT 03/M16 A3012 RMK A01 T00251162  RH  024%=      5-min Rain = 0
KDMS 120055Z 13005KT 03/M16 A3012 RMK A01 T00291160  RH  023%=      5-min Rain = 0
KDMS 120100Z 14006KT 03/M16 A3013 RMK A01 T00261162  RH  023%=      5-min Rain = 0
KDMS 120105Z 14005KT 02/M16 A3013 RMK A01 T00211163  RH  024%=      5-min Rain = 0
KDMS 120110Z 14004KT 02/M16 A3013 RMK A01 T00191164  RH  024%=      5-min Rain = 0
KDMS 120115Z 14005KT 02/M17 A3013 RMK A01 T00171165  RH  024%=      5-min Rain = 0
KDMS 120120Z 14005KT 01/M17 A3014 RMK A01 T00121165  RH  025%=      5-min Rain = 0
KDMS 120125Z 13005KT 01/M17 A3014 RMK A01 T00101165  RH  026%=      5-min Rain = 0
KDMS 120130Z 14007KT 01/M17 A3014 RMK A01 T00061165  RH  026%=      5-min Rain = 0
KDMS 120135Z 13006KT 00/16 A3014 RMK A01 T00-00-163  RH  028%=      5-min Rain = 0
KDMS 120140Z 13007KT M00/M16 A3014 RMK A01 T10011163  RH  028%=      5-min Rain = 0
KDMS 120145Z 13007KT M00/M16 A3015 RMK A01 T10041164  RH  028%=      5-min Rain = 0
KDMS 120150Z 13007KT M01/M17 A3015 RMK A01 T10081165  RH  029%=      5-min Rain = 0
KDMS 120155Z 13007KT M01/M17 A3015 RMK A01 T10101165  RH  030%=      5-min Rain = 0
KDMS 120200Z 13007KT M01/M17 A3015 RMK A01 T10111165  RH  029%=      5-min Rain = 0
KDMS 120205Z 13008KT M01/M17 A3015 RMK A01 T10131167  RH  030%=      5-min Rain = 0
KDMS 120210Z 13007KT M02/M17 A3015 RMK A01 T10151168  RH  030%=      5-min Rain = 0
KDMS 120215Z 13007KT M02/M17 A3016 RMK A01 T10161168  RH  030%=      5-min Rain = 0
KDMS 120220Z 13007KT M02/M17 A3016 RMK A01 T10151167  RH  030%=      5-min Rain = 0
KDMS 120225Z 14007KT M02/M17 A3016 RMK A01 T10151168  RH  030%=      5-min Rain = 0
KDMS 120230Z 14006KT M02/M17 A3016 RMK A01 T10161170  RH  029%=      5-min Rain = 0
KDMS 120235Z 13006KT M02/M17 A3016 RMK A01 T10191170  RH  030%=      5-min Rain = 0
KDMS 120240Z 14007KT M02/M17 A3016 RMK A01 T10181169  RH  030%=      5-min Rain = 0
KDMS 120245Z 14006KT M02/M17 A3016 RMK A01 T10191170  RH  030%=      5-min Rain = 0
KDMS 120250Z 15007KT M02/M17 A3017 RMK A01 T10181171  RH  030%=      5-min Rain = 0
KDMS 120255Z 15006KT M02/M17 A3017 RMK A01 T10181172  RH  029%=      5-min Rain = 0
KDMS 120300Z 15006KT M02/M17 A3017 RMK A01 T10181171  RH  030%=      5-min Rain = 0
KDMS 120305Z 16006KT M02/M17 A3017 RMK A01 T10221173  RH  030%=      5-min Rain = 0
KDMS 120310Z 16004KT M03/M17 A3018 RMK A01 T10321172  RH  033%=      5-min Rain = 0
KDMS 120315Z 16005KT M03/M17 A3018 RMK A01 T10291169  RH  033%=      5-min Rain = 0
KDMS 120320Z 15005KT M03/M17 A3018 RMK A01 T10261169  RH  032%=      5-min Rain = 0
KDMS 120325Z 16005KT M02/M17 A3018 RMK A01 T10241169  RH  032%=      5-min Rain = 0
KDMS 120330Z 17005KT M03/M17 A3018 RMK A01 T10251170  RH  031%=      5-min Rain = 0
KDMS 120335Z 15005KT M03/M17 A3018 RMK A01 T10261170  RH  032%=      5-min Rain = 0
KDMS 120340Z 16006KT M03/M17 A3018 RMK A01 T10271171  RH  032%=      5-min Rain = 0
KDMS 120345Z 16007KT M03/M17 A3018 RMK A01 T10311172  RH  033%=      5-min Rain = 0
KDMS 120350Z 16007KT M04/M17 A3017 RMK A01 T10371172  RH  034%=      5-min Rain = 0
KDMS 120355Z 17007KT M04/M17 A3017 RMK A01 T10371170  RH  035%=      5-min Rain = 0
KDMS 120400Z 17006KT M04/M17 A3017 RMK A01 T10381167  RH  035%=      5-min Rain = 0
KDMS 120405Z 17006KT M04/M17 A3017 RMK A01 T10381166  RH  036%=      5-min Rain = 0
KDMS 120410Z 16005KT M04/M17 A3018 RMK A01 T10391166  RH  036%=      5-min Rain = 0
KDMS 120415Z 15005KT M04/M17 A3017 RMK A01 T10381167  RH  036%=      5-min Rain = 0
KDMS 120420Z 16006KT M04/M17 A3017 RMK A01 T10361167  RH  035%=      5-min Rain = 0
KDMS 120425Z 14007KT M04/M17 A3017 RMK A01 T10391171  RH  035%=      5-min Rain = 0
KDMS 120430Z 15006KT M05/M17 A3017 RMK A01 T10451169  RH  037%=      5-min Rain = 0
KDMS 120435Z 16006KT M05/M17 A3017 RMK A01 T10461174  RH  036%=      5-min Rain = 0
KDMS 120440Z 15007KT M05/M17 A3017 RMK A01 T10531174  RH  037%=      5-min Rain = 0
KDMS 120445Z 16006KT M06/M18 A3017 RMK A01 T10621175  RH  040%=      5-min Rain = 0
KDMS 120450Z 16005KT M07/M17 A3018 RMK A01 T10671172  RH  042%=      5-min Rain = 0
KDMS 120455Z 17006KT M06/M17 A3018 RMK A01 T10631171  RH  041%=      5-min Rain = 0
KDMS 120500Z 18005KT M06/M17 A3017 RMK A01 T10571168  RH  041%=      5-min Rain = 0
KDMS 120505Z 18005KT M05/M16 A3018 RMK A01 T10531164  RH  041%=      5-min Rain = 0
KDMS 120510Z 18004KT M05/M17 A3018 RMK A01 T10531165  RH  041%=      5-min Rain = 0
KDMS 120515Z 15004KT M05/M16 A3018 RMK A01 T10531164  RH  041%=      5-min Rain = 0
KDMS 120520Z 15006KT M05/M16 A3018 RMK A01 T10501164  RH  040%=      5-min Rain = 0
KDMS 120525Z 15006KT M05/M17 A3018 RMK A01 T10531169  RH  039%=      5-min Rain = 0
KDMS 120530Z 15006KT M05/M17 A3018 RMK A01 T10521170  RH  039%=      5-min Rain = 0
KDMS 120535Z 17006KT M05/M17 A3018 RMK A01 T10531170  RH  039%=      5-min Rain = 0
KDMS 120540Z 17005KT M06/M17 A3018 RMK A01 T10551171  RH  039%=      5-min Rain = 0
KDMS 120545Z 15006KT M06/M17 A3018 RMK A01 T10591169  RH  041%=      5-min Rain = 0
KDMS 120550Z 15007KT M06/M17 A3018 RMK A01 T10641171  RH  042%=      5-min Rain = 0
KDMS 120555Z 14008KT M07/M17 A3019 RMK A01 T10651171  RH  042%=      5-min Rain = 0

Page generated in 0.0105 seconds.